Time;durP1;ratioP1;P1;durP2;ratioP2;P2;SDS_P1;SDS_P2;PMS_P1;PMS_P2;Temp;Humidity;BMP_temperature;BMP_pressure;BME280_temperature;BME280_humidity;BME280_pressure;Samples;Min_cycle;Max_cycle;Signal;HPM_P1;HPM_P2
2023/03/04 00:01:44;;;;;;;36.28;26.23;;;;;;;-0.91;100.00;96296.03;4989214;28;24445;-75
2023/03/04 00:04:12;;;;;;;32.85;25.42;;;;;;;-0.93;100.00;96301.13;4989392;28;24492;-75
2023/03/04 00:06:39;;;;;;;38.42;27.30;;;;;;;-0.98;100.00;96293.56;4986067;28;24994;-76
2023/03/04 00:09:05;;;;;;;37.22;27.75;;;;;;;-1.06;100.00;96297.88;4982838;28;24448;-75
2023/03/04 00:11:32;;;;;;;42.22;29.70;;;;;;;-1.25;100.00;96302.28;4989726;28;24436;-75
2023/03/04 00:13:59;;;;;;;35.67;28.45;;;;;;;-1.16;100.00;96297.97;4987343;28;24448;-75
2023/03/04 00:16:26;;;;;;;42.33;28.38;;;;;;;-1.07;100.00;96303.81;4988604;28;24850;-75
2023/03/04 00:18:52;;;;;;;39.45;27.13;;;;;;;-0.98;100.00;96307.97;4985739;28;24444;-75
2023/03/04 00:21:21;;;;;;;35.13;28.10;;;;;;;-0.97;100.00;96305.41;4990395;28;24456;-75
2023/03/04 00:23:47;;;;;;;53.42;28.65;;;;;;;-0.99;100.00;96296.13;4984966;28;24455;-75
2023/03/04 00:26:14;;;;;;;41.95;30.55;;;;;;;-0.96;100.00;96293.56;4985086;28;24437;-75
2023/03/04 00:28:40;;;;;;;38.47;27.97;;;;;;;-0.98;100.00;96292.72;4987912;28;24445;-75
2023/03/04 00:31:07;;;;;;;41.25;29.00;;;;;;;-0.97;100.00;96296.94;4987739;28;24440;-75
2023/03/04 00:33:34;;;;;;;41.70;31.20;;;;;;;-0.98;100.00;96296.09;4987513;28;25092;-75
2023/03/04 00:36:02;;;;;;;46.15;30.02;;;;;;;-0.97;100.00;96291.84;4983146;28;24445;-75
2023/03/04 00:38:29;;;;;;;41.75;28.48;;;;;;;-0.96;100.00;96293.56;4983229;28;24452;-75
2023/03/04 00:40:56;;;;;;;33.00;26.25;;;;;;;-0.99;100.00;96296.97;4982207;28;24456;-75
2023/03/04 00:43:23;;;;;;;36.78;25.88;;;;;;;-1.01;100.00;96295.28;4984335;28;24445;-75
2023/03/04 00:45:49;;;;;;;35.58;26.83;;;;;;;-1.00;100.00;96292.75;4989957;28;24433;-76
2023/03/04 00:48:16;;;;;;;41.60;25.38;;;;;;;-1.07;100.00;96301.28;4984100;28;24448;-74
2023/03/04 00:50:43;;;;;;;30.90;23.17;;;;;;;-1.09;100.00;96297.88;4986120;28;24499;-75
2023/03/04 00:53:10;;;;;;;32.75;23.92;;;;;;;-1.27;100.00;96296.34;4984962;28;25014;-75
2023/03/04 00:55:38;;;;;;;28.40;22.63;;;;;;;-1.31;100.00;96294.69;4988621;28;25241;-75
2023/03/04 00:58:05;;;;;;;30.90;23.48;;;;;;;-1.31;100.00;96291.31;4988799;28;24444;-75
2023/03/04 01:00:31;;;;;;;35.65;23.80;;;;;;;-1.34;100.00;96288.78;4984577;28;24464;-75
2023/03/04 01:02:57;;;;;;;34.42;25.83;;;;;;;-1.32;100.00;96290.47;4988132;28;24444;-75
2023/03/04 01:05:24;;;;;;;32.72;25.05;;;;;;;-1.29;100.00;96292.16;4989723;28;24440;-75
2023/03/04 01:07:50;;;;;;;41.05;25.65;;;;;;;-1.27;100.00;96285.34;4988107;28;24433;-75
2023/03/04 01:10:18;;;;;;;38.10;26.35;;;;;;;-1.23;100.00;96289.53;4984221;28;25009;-75
2023/03/04 01:12:45;;;;;;;31.92;25.27;;;;;;;-1.23;100.00;96285.28;4984057;28;24463;-76
2023/03/04 01:15:14;;;;;;;36.17;25.90;;;;;;;-1.19;100.00;96290.34;4989751;28;24433;-76
2023/03/04 01:17:40;;;;;;;35.03;25.93;;;;;;;-1.18;100.00;96289.53;4990474;28;24437;-75
2023/03/04 01:20:08;;;;;;;36.92;27.42;;;;;;;-1.21;100.00;96285.31;4980198;28;24465;-75
2023/03/04 01:22:35;;;;;;;35.22;25.40;;;;;;;-1.23;100.00;96280.22;4991291;28;24443;-75
2023/03/04 01:25:01;;;;;;;35.42;26.50;;;;;;;-1.30;100.00;96282.81;4988507;28;24447;-75
2023/03/04 01:27:28;;;;;;;36.53;26.17;;;;;;;-1.37;100.00;96281.19;4990709;28;24989;-75
2023/03/04 01:29:56;;;;;;;43.85;27.40;;;;;;;-1.55;100.00;96279.66;4983858;28;24808;-75
2023/03/04 01:32:22;;;;;;;37.08;27.10;;;;;;;-1.50;100.00;96285.53;4992959;28;24443;-75
2023/03/04 01:34:49;;;;;;;42.08;26.73;;;;;;;-1.49;100.00;96279.59;4985418;28;24440;-75
2023/03/04 01:37:15;;;;;;;34.35;25.85;;;;;;;-1.52;100.00;96280.47;4979615;28;24464;-75
2023/03/04 01:39:42;;;;;;;32.05;23.98;;;;;;;-1.48;100.00;96279.59;4986070;28;24811;-75
2023/03/04 01:42:17;;;;;;;40.00;25.10;;;;;;;-1.49;100.00;96277.88;4988590;28;24440;-75
2023/03/04 01:44:45;;;;;;;34.45;24.17;;;;;;;-1.49;100.00;96271.97;4979525;28;24808;-75
2023/03/04 01:47:13;;;;;;;32.95;24.50;;;;;;;-1.51;100.00;96273.69;4986504;28;25049;-75
2023/03/04 01:49:40;;;;;;;34.78;25.42;;;;;;;-1.56;100.00;96268.66;4977006;28;24445;-75
2023/03/04 01:52:11;;;;;;;37.38;27.92;;;;;;;-1.65;100.00;96268.69;4988761;28;24998;-75
2023/03/04 01:54:38;;;;;;;37.25;27.77;;;;;;;-1.62;100.00;96273.75;4992573;28;24437;-75
2023/03/04 01:57:15;;;;;;;39.15;27.20;;;;;;;-1.62;100.00;96267.84;4989677;28;24444;-76
2023/03/04 01:59:41;;;;;;;41.75;27.77;;;;;;;-1.64;100.00;96272.09;4989591;28;24526;-76
2023/03/04 02:02:08;;;;;;;47.75;29.63;;;;;;;-1.75;100.00;96273.00;4990016;28;24453;-75
2023/03/04 02:04:36;;;;;;;47.35;28.17;;;;;;;-1.91;100.00;96265.50;4992853;28;24440;-75
2023/03/04 02:07:04;;;;;;;41.88;27.67;;;;;;;-1.82;100.00;96270.50;4991585;28;24444;-75
2023/03/04 02:09:32;;;;;;;37.22;26.02;;;;;;;-1.78;100.00;96262.88;4989588;28;24859;-75
2023/03/04 02:11:59;;;;;;;40.67;26.53;;;;;;;-1.75;100.00;96264.53;4992867;28;24468;-75
2023/03/04 02:14:26;;;;;;;37.30;26.33;;;;;;;-1.72;100.00;96265.34;4990566;28;24439;-75
2023/03/04 02:16:53;;;;;;;38.65;26.10;;;;;;;-1.73;100.00;96257.75;4990460;28;24441;-75
2023/03/04 02:19:32;;;;;;;34.20;26.35;;;;;;;-1.71;100.00;96259.44;4992778;28;24448;-75
2023/03/04 02:21:59;;;;;;;34.55;26.05;;;;;;;-1.70;100.00;96260.28;4986133;28;24452;-75
2023/03/04 02:24:31;;;;;;;33.75;25.88;;;;;;;-1.68;100.00;96257.72;4985816;28;24445;-75
2023/03/04 02:26:59;;;;;;;41.17;25.02;;;;;;;-1.74;100.00;96256.09;4989651;28;24444;-75
2023/03/04 02:29:26;;;;;;;33.05;25.33;;;;;;;-1.87;100.00;96254.47;4991700;28;24445;-76
2023/03/04 02:31:54;;;;;;;33.25;24.63;;;;;;;-1.92;100.00;96256.22;4990006;28;24437;-75
2023/03/04 02:34:23;;;;;;;32.80;24.33;;;;;;;-2.03;100.00;96243.59;4985179;28;24444;-75
2023/03/04 02:36:52;;;;;;;31.80;24.05;;;;;;;-1.99;100.00;96251.16;4987277;28;25005;-75
2023/03/04 02:39:27;;;;;;;34.15;24.13;;;;;;;-1.95;100.00;96241.84;4991991;28;24448;-75
2023/03/04 02:41:56;;;;;;;30.63;23.93;;;;;;;-1.97;100.00;96239.28;4990967;28;24454;-75
2023/03/04 02:44:25;;;;;;;32.93;23.87;;;;;;;-1.91;100.00;96253.66;4991938;28;24433;-75
2023/03/04 02:46:52;;;;;;;35.63;24.58;;;;;;;-1.96;100.00;96251.16;4982020;28;24437;-75
2023/03/04 02:49:20;;;;;;;28.70;22.98;;;;;;;-1.93;100.00;96244.34;4984216;28;24441;-75
2023/03/04 02:51:48;;;;;;;33.00;24.10;;;;;;;-1.93;100.00;96244.34;4985637;28;25013;-75
2023/03/04 02:54:15;;;;;;;39.17;25.90;;;;;;;-1.95;100.00;96244.38;4991477;28;24994;-75
2023/03/04 02:56:45;;;;;;;35.53;24.33;;;;;;;-1.99;100.00;96255.41;4989610;28;24432;-75
2023/03/04 02:59:11;;;;;;;34.35;24.33;;;;;;;-2.00;100.00;96248.66;4984152;28;24452;-75
2023/03/04 03:01:39;;;;;;;37.80;24.85;;;;;;;-2.02;100.00;96250.34;4988735;28;24450;-75
2023/03/04 03:04:06;;;;;;;35.38;24.63;;;;;;;-2.01;100.00;96250.31;4992342;28;24440;-75
2023/03/04 03:06:32;;;;;;;35.03;24.17;;;;;;;-1.86;100.00;96244.28;4990083;28;24460;-75
2023/03/04 03:08:59;;;;;;;32.20;23.80;;;;;;;-2.07;100.00;96252.91;4991488;28;25189;-75
2023/03/04 03:11:25;;;;;;;34.08;22.85;;;;;;;-2.20;100.00;96251.28;4990895;28;24444;-75
2023/03/04 03:13:52;;;;;;;32.40;24.17;;;;;;;-2.20;100.00;96252.13;4990016;28;24840;-75
2023/03/04 03:16:18;;;;;;;30.83;22.80;;;;;;;-2.22;100.00;96258.06;4990129;28;24441;-75
2023/03/04 03:18:46;;;;;;;29.30;22.88;;;;;;;-2.24;100.00;96252.97;4984367;28;24445;-75
2023/03/04 03:21:12;;;;;;;34.58;24.27;;;;;;;-2.21;100.00;96250.44;4986671;28;24456;-75
2023/03/04 03:23:39;;;;;;;31.52;23.88;;;;;;;-2.28;100.00;96258.09;4987217;28;24440;-75
2023/03/04 03:26:06;;;;;;;30.83;23.15;;;;;;;-2.24;100.00;96255.53;4987964;28;24468;-74
2023/03/04 03:28:32;;;;;;;38.25;23.45;;;;;;;-2.26;100.00;96251.31;4990182;28;25105;-75
2023/03/04 03:30:59;;;;;;;36.08;26.20;;;;;;;-2.18;100.00;96246.22;4991024;28;24440;-75
2023/03/04 03:33:25;;;;;;;34.75;24.60;;;;;;;-2.09;100.00;96254.59;4990564;28;24436;-75
2023/03/04 03:35:53;;;;;;;33.30;26.23;;;;;;;-2.28;100.00;96253.00;4984938;28;24448;-75
2023/03/04 03:38:20;;;;;;;33.33;24.90;;;;;;;-2.36;100.00;96252.22;4991488;28;24443;-75
2023/03/04 03:40:46;;;;;;;33.95;23.92;;;;;;;-2.63;100.00;96253.16;4990600;28;24824;-75
2023/03/04 03:43:13;;;;;;;35.35;25.08;;;;;;;-2.69;100.00;96254.03;4987917;28;24440;-75
2023/03/04 03:45:39;;;;;;;34.25;24.98;;;;;;;-2.80;100.00;96259.13;4981203;28;24444;-75
2023/03/04 03:48:06;;;;;;;37.25;25.23;;;;;;;-2.79;100.00;96252.38;4987105;28;24452;-75
2023/03/04 03:50:32;;;;;;;35.33;24.90;;;;;;;-2.69;100.00;96247.25;4988567;28;24975;-75
2023/03/04 03:53:00;;;;;;;33.03;24.52;;;;;;;-2.60;100.00;96253.97;4989147;28;24437;-75
2023/03/04 03:55:28;;;;;;;32.43;24.93;;;;;;;-2.53;100.00;96254.81;4984925;28;24487;-75
2023/03/04 03:57:54;;;;;;;33.33;25.07;;;;;;;-2.55;100.00;96252.28;4985119;28;24654;-75
2023/03/04 04:00:21;;;;;;;38.30;25.85;;;;;;;-2.51;100.00;96236.22;4988281;28;24444;-75
2023/03/04 04:02:48;;;;;;;41.07;26.50;;;;;;;-2.59;100.00;96245.56;4983343;28;24914;-75
2023/03/04 04:05:14;;;;;;;33.85;24.23;;;;;;;-2.50;100.00;96248.03;4988869;28;24433;-75
2023/03/04 04:07:43;;;;;;;35.03;25.08;;;;;;;-2.54;100.00;96253.13;4985006;28;25058;-74
2023/03/04 04:10:11;;;;;;;32.05;24.63;;;;;;;-2.50;100.00;96247.19;4986724;28;24995;-74
2023/03/04 04:12:38;;;;;;;28.53;23.97;;;;;;;-2.63;100.00;96246.41;4990713;28;24444;-74
2023/03/04 04:15:06;;;;;;;32.00;23.92;;;;;;;-2.57;100.00;96241.28;4986219;28;24433;-75
2023/03/04 04:17:32;;;;;;;32.75;23.83;;;;;;;-2.54;100.00;96246.38;4988771;28;24529;-75
2023/03/04 04:19:59;;;;;;;36.17;25.90;;;;;;;-2.50;100.00;96240.44;4987534;28;24436;-74
2023/03/04 04:22:25;;;;;;;31.38;23.05;;;;;;;-2.47;100.00;96250.56;4990440;28;24456;-74
2023/03/04 04:24:51;;;;;;;33.30;23.27;;;;;;;-2.47;100.00;96247.19;4987812;28;25023;-74
2023/03/04 04:27:19;;;;;;;37.58;25.45;;;;;;;-2.48;100.00;96246.34;4988952;28;24441;-75
2023/03/04 04:29:46;;;;;;;33.38;24.38;;;;;;;-2.61;100.00;96248.94;4989502;28;24440;-74
2023/03/04 04:32:12;;;;;;;31.67;23.40;;;;;;;-2.63;100.00;96253.16;4983355;28;24444;-75
2023/03/04 04:34:39;;;;;;;33.30;24.25;;;;;;;-2.76;100.00;96252.38;4989128;28;24464;-75
2023/03/04 04:37:05;;;;;;;36.70;25.80;;;;;;;-2.97;100.00;96248.19;4984924;28;24433;-75
2023/03/04 04:39:32;;;;;;;35.45;24.40;;;;;;;-2.94;100.00;96241.41;4986578;28;24449;-75
2023/03/04 04:41:58;;;;;;;29.75;23.13;;;;;;;-2.82;100.00;96243.06;4983187;28;24456;-74
2023/03/04 04:44:26;;;;;;;34.60;24.52;;;;;;;-2.74;100.00;96243.91;4983043;28;24440;-74
2023/03/04 04:46:53;;;;;;;30.90;24.40;;;;;;;-2.66;100.00;96248.13;4989590;28;24437;-75
2023/03/04 04:49:19;;;;;;;34.83;24.17;;;;;;;-2.67;100.00;96247.25;4990003;28;24441;-75
2023/03/04 04:51:46;;;;;;;30.08;23.27;;;;;;;-2.65;100.00;96247.25;4988584;28;24445;-74
2023/03/04 04:54:14;;;;;;;32.75;23.23;;;;;;;-2.62;100.00;96244.72;4990097;28;25085;-74
2023/03/04 04:56:41;;;;;;;30.25;23.35;;;;;;;-2.64;100.00;96249.78;4984031;28;25853;-74
2023/03/04 04:59:07;;;;;;;35.50;24.48;;;;;;;-2.61;100.00;96252.31;4989625;28;25006;-75
2023/03/04 05:01:35;;;;;;;36.78;24.23;;;;;;;-2.57;100.00;96250.59;4988608;28;24452;-75
2023/03/04 05:04:01;;;;;;;30.65;21.83;;;;;;;-2.75;100.00;96249.81;4990180;28;24467;-75
2023/03/04 05:06:28;;;;;;;33.28;23.83;;;;;;;-2.83;100.00;96254.06;4986580;28;24452;-75
2023/03/04 05:08:55;;;;;;;34.65;23.58;;;;;;;-2.89;100.00;96248.16;4982788;28;24437;-75
2023/03/04 05:11:22;;;;;;;33.03;24.42;;;;;;;-3.00;100.00;96248.22;4989484;28;24521;-75
2023/03/04 05:13:49;;;;;;;29.42;23.92;;;;;;;-3.12;100.00;96250.75;4989035;28;24437;-74
2023/03/04 05:16:16;;;;;;;42.55;25.90;;;;;;;-3.14;100.00;96244.88;4989116;28;24991;-75
2023/03/04 05:18:44;;;;;;;33.13;24.50;;;;;;;-3.16;100.00;96244.84;4985241;28;24816;-74
2023/03/04 05:21:11;;;;;;;35.33;25.73;;;;;;;-3.21;100.00;96252.47;4986093;28;24456;-74
2023/03/04 05:23:39;;;;;;;40.95;26.58;;;;;;;-3.16;100.00;96249.91;4988138;28;24440;-75
2023/03/04 05:26:06;;;;;;;39.20;28.05;;;;;;;-3.10;100.00;96252.44;4984081;28;24496;-75
2023/03/04 05:28:34;;;;;;;33.72;25.98;;;;;;;-3.08;100.00;96249.91;4989245;28;25038;-75
2023/03/04 05:31:01;;;;;;;42.35;26.90;;;;;;;-3.09;100.00;96254.13;4986740;28;24444;-75
2023/03/04 05:33:27;;;;;;;32.30;24.35;;;;;;;-3.11;100.00;96258.38;4989819;28;24461;-75
2023/03/04 05:35:55;;;;;;;42.63;26.23;;;;;;;-3.04;100.00;96261.72;4984833;28;25010;-75
2023/03/04 05:38:22;;;;;;;36.33;26.33;;;;;;;-2.99;100.00;96254.97;4984125;28;24456;-74
2023/03/04 05:40:49;;;;;;;38.15;25.45;;;;;;;-3.02;100.00;96254.97;4984082;28;24436;-74
2023/03/04 05:43:16;;;;;;;37.05;25.98;;;;;;;-3.11;100.00;96253.31;4989308;28;24460;-74
2023/03/04 05:45:43;;;;;;;34.05;24.20;;;;;;;-3.14;100.00;96260.06;4985431;28;24437;-75
2023/03/04 05:48:10;;;;;;;36.08;24.05;;;;;;;-3.17;100.00;96258.38;4980159;28;24437;-75
2023/03/04 05:50:36;;;;;;;32.05;24.05;;;;;;;-3.27;100.00;96259.22;4978806;28;25045;-74
2023/03/04 05:53:04;;;;;;;39.00;24.67;;;;;;;-3.28;100.00;96258.38;4988165;28;24440;-75
2023/03/04 05:55:31;;;;;;;31.23;24.15;;;;;;;-3.28;100.00;96260.06;4987107;28;24863;-75
2023/03/04 05:57:58;;;;;;;32.63;24.70;;;;;;;-3.20;100.00;96260.91;4988622;28;24796;-75
2023/03/04 06:00:25;;;;;;;37.70;25.42;;;;;;;-3.12;100.00;96268.50;4984765;28;24999;-75
2023/03/04 06:02:52;;;;;;;33.45;24.27;;;;;;;-3.12;100.00;96266.78;4989213;28;24461;-75
2023/03/04 06:05:19;;;;;;;30.65;23.05;;;;;;;-3.14;100.00;96263.44;4989966;28;24468;-75
2023/03/04 06:07:45;;;;;;;35.03;24.05;;;;;;;-3.30;100.00;96271.88;4988758;28;24898;-75
2023/03/04 06:10:15;;;;;;;29.70;22.63;;;;;;;-3.29;100.00;96271.91;4984939;28;24444;-75
2023/03/04 06:12:42;;;;;;;31.55;23.38;;;;;;;-3.31;100.00;96272.75;4992709;28;24441;-75
2023/03/04 06:15:10;;;;;;;30.37;23.07;;;;;;;-3.24;100.00;96276.97;4992565;28;24436;-75
2023/03/04 06:17:37;;;;;;;34.08;23.30;;;;;;;-3.27;100.00;96270.19;4992787;28;24472;-75
2023/03/04 06:20:05;;;;;;;27.48;22.63;;;;;;;-3.15;100.00;96282.03;4990988;28;24440;-75
2023/03/04 06:22:32;;;;;;;33.60;24.25;;;;;;;-3.03;100.00;96288.75;4987500;28;25049;-75
2023/03/04 06:24:59;;;;;;;36.27;23.17;;;;;;;-3.21;100.00;96289.63;4990739;28;24436;-75
2023/03/04 06:27:27;;;;;;;32.63;24.42;;;;;;;-3.23;100.00;96292.13;4987199;28;24517;-75
2023/03/04 06:29:53;;;;;;;33.70;24.35;;;;;;;-3.13;100.00;96292.16;4981947;28;24445;-75
2023/03/04 06:32:20;;;;;;;28.05;22.27;;;;;;;-2.99;100.00;96298.03;4981902;28;24441;-74
2023/03/04 06:34:46;;;;;;;33.97;23.90;;;;;;;-2.89;100.00;96304.78;4991824;28;24812;-75
2023/03/04 06:37:13;;;;;;;33.15;23.98;;;;;;;-2.75;100.00;96303.03;4984798;28;24804;-74
2023/03/04 06:39:39;;;;;;;37.55;24.35;;;;;;;-2.72;100.00;96303.03;4984170;28;24488;-75
2023/03/04 06:42:06;;;;;;;33.83;23.83;;;;;;;-2.61;100.00;96300.47;4986715;28;24460;-75
2023/03/04 06:44:34;;;;;;;31.70;23.08;;;;;;;-2.54;100.00;96307.22;4988514;28;24808;-75
2023/03/04 06:47:00;;;;;;;29.92;21.52;;;;;;;-2.54;100.00;96306.38;4987865;28;24441;-75
2023/03/04 06:49:27;;;;;;;31.20;22.00;;;;;;;-2.31;100.00;96308.84;4991617;28;24445;-74
2023/03/04 06:51:53;;;;;;;29.10;21.33;;;;;;;-2.13;100.00;96308.75;4989113;28;24441;-74
2023/03/04 06:54:20;;;;;;;29.73;21.88;;;;;;;-2.09;100.00;96304.50;4992026;28;24440;-74
2023/03/04 06:56:46;;;;;;;31.40;21.48;;;;;;;-2.27;100.00;96310.50;4986378;28;24437;-74
2023/03/04 06:59:13;;;;;;;34.92;22.70;;;;;;;-2.30;100.00;96308.84;4991078;28;24433;-74
2023/03/04 07:01:41;;;;;;;31.02;23.00;;;;;;;-2.10;100.00;96310.44;4986601;28;24433;-74
2023/03/04 07:04:07;;;;;;;29.05;21.48;;;;;;;-1.92;100.00;96312.06;4984182;28;24982;-74
2023/03/04 07:06:34;;;;;;;32.28;23.63;;;;;;;-1.78;100.00;96313.66;4991316;28;24463;-75
2023/03/04 07:09:00;;;;;;;31.13;21.88;;;;;;;-1.63;100.00;96314.41;4989293;28;24429;-75
2023/03/04 07:11:27;;;;;;;35.95;24.73;;;;;;;-1.49;100.00;96310.06;4991215;28;24445;-75
2023/03/04 07:13:53;;;;;;;36.00;24.50;;;;;;;-1.33;100.00;96316.75;4988645;28;24433;-75
2023/03/04 07:16:22;;;;;;;37.85;25.20;;;;;;;-1.12;100.00;96317.41;4976761;28;24472;-75
2023/03/04 07:18:50;;;;;;;32.33;24.88;;;;;;;-0.97;100.00;96325.75;4986085;28;24656;-75
2023/03/04 07:21:17;;;;;;;36.08;25.58;;;;;;;-0.84;100.00;96323.94;4992063;28;24452;-75
2023/03/04 07:23:44;;;;;;;35.13;26.02;;;;;;;-0.69;100.00;96330.59;4983982;28;24450;-75
2023/03/04 07:26:10;;;;;;;35.22;25.60;;;;;;;-0.52;100.00;96330.41;4990398;28;24441;-75
2023/03/04 07:28:39;;;;;;;37.08;27.27;;;;;;;-0.29;100.00;96336.09;4983802;28;24448;-75
2023/03/04 07:31:13;;;;;;;40.37;25.90;;;;;;;-0.27;100.00;96338.63;4987235;28;24492;-75
2023/03/04 07:33:39;;;;;;;38.85;26.17;;;;;;;-0.17;100.00;96334.28;4984256;28;24484;-75
2023/03/04 07:36:07;;;;;;;38.90;28.37;;;;;;;-0.32;100.00;96336.13;4987568;28;24452;-75
2023/03/04 07:38:34;;;;;;;38.55;26.92;;;;;;;-0.25;100.00;96336.91;4990537;28;24448;-75
2023/03/04 07:41:01;;;;;;;29.47;23.00;;;;;;;-0.67;100.00;96340.72;4985338;28;24481;-75
2023/03/04 07:43:28;;;;;;;31.40;24.30;;;;;;;-0.41;100.00;96341.31;4989252;28;24456;-75
2023/03/04 07:45:59;;;;;;;33.97;22.58;;;;;;;-0.69;100.00;96342.47;4984625;28;24440;-75
2023/03/04 07:48:26;;;;;;;28.10;21.27;;;;;;;-0.95;100.00;96341.00;4982878;28;25131;-75
2023/03/04 07:51:02;;;;;;;37.05;22.20;;;;;;;-0.93;100.00;96351.97;4986272;28;24436;-75
2023/03/04 07:53:30;;;;;;;28.65;20.17;;;;;;;-1.28;100.00;96348.03;4988600;28;24440;-75
2023/03/04 07:55:57;;;;;;;25.08;19.10;;;;;;;-1.16;100.00;96347.09;4990738;28;24459;-75
2023/03/04 07:58:24;;;;;;;31.38;20.88;;;;;;;-1.24;100.00;96336.16;4983014;28;24448;-75
2023/03/04 08:00:51;;;;;;;27.90;20.13;;;;;;;-1.12;100.00;96351.28;4987355;28;24437;-75
2023/03/04 08:03:17;;;;;;;30.15;21.17;;;;;;;-0.74;100.00;96355.22;4989540;28;24607;-75
2023/03/04 08:05:43;;;;;;;30.17;22.30;;;;;;;-0.47;100.00;96356.66;4988541;28;25060;-76
2023/03/04 08:08:10;;;;;;;29.92;22.23;;;;;;;-0.59;100.00;96356.78;4989387;28;24452;-76
2023/03/04 08:10:38;;;;;;;28.48;21.27;;;;;;;-0.77;100.00;96363.72;4987797;28;24554;-75
2023/03/04 08:13:05;;;;;;;30.08;22.42;;;;;;;-0.43;100.00;96355.75;4991190;28;24504;-75
2023/03/04 08:15:34;;;;;;;32.53;23.08;;;;;;;-0.78;100.00;96364.59;4989664;28;24440;-75
2023/03/04 08:18:00;;;;;;;30.63;21.23;;;;;;;-0.86;100.00;96362.94;4979267;28;24904;-75
2023/03/04 08:20:27;;;;;;;27.55;21.67;;;;;;;-1.13;100.00;96369.09;4986038;28;24445;-75
2023/03/04 08:22:54;;;;;;;29.47;21.90;;;;;;;-0.98;100.00;96366.44;4986044;28;25271;-76
2023/03/04 08:25:20;;;;;;;33.15;22.55;;;;;;;-0.62;100.00;96375.47;4989735;28;24835;-72
2023/03/04 08:27:48;;;;;;;30.80;22.83;;;;;;;-0.67;100.00;96376.34;4987968;28;24441;-75
2023/03/04 08:30:15;;;;;;;33.55;22.58;;;;;;;-0.70;100.00;96369.59;4985300;28;24444;-75
2023/03/04 08:32:41;;;;;;;29.88;22.63;;;;;;;-0.86;100.00;96375.66;4987271;28;24847;-75
2023/03/04 08:35:08;;;;;;;31.13;22.05;;;;;;;-0.75;100.00;96367.09;4986160;28;24452;-76
2023/03/04 08:37:34;;;;;;;30.33;22.20;;;;;;;-0.73;100.00;96382.34;4987598;28;25006;-75
2023/03/04 08:40:01;;;;;;;32.00;22.58;;;;;;;-0.47;100.00;96386.34;4982459;28;25081;-76
2023/03/04 08:42:27;;;;;;;29.83;22.23;;;;;;;-0.51;100.00;96377.91;4986953;28;25061;-76
2023/03/04 08:44:55;;;;;;;32.75;23.45;;;;;;;-0.87;100.00;96382.47;4989103;28;24507;-75
2023/03/04 08:47:21;;;;;;;30.05;22.27;;;;;;;-1.30;100.00;96389.53;4990168;28;24440;-75
2023/03/04 08:49:48;;;;;;;50.40;24.25;;;;;;;-1.22;100.00;96387.81;4989587;28;24448;-75
2023/03/04 08:52:14;;;;;;;30.92;23.55;;;;;;;-1.34;100.00;96386.19;4986570;28;24441;-75
2023/03/04 08:54:41;;;;;;;32.17;22.73;;;;;;;-1.15;100.00;96380.97;4988722;28;24986;-75
2023/03/04 08:57:07;;;;;;;40.40;25.52;;;;;;;-1.14;100.00;96392.84;4979230;28;24987;-75
2023/03/04 08:59:34;;;;;;;32.03;24.55;;;;;;;-1.01;100.00;96390.19;4974835;28;24829;-76
2023/03/04 09:02:01;;;;;;;35.63;25.45;;;;;;;-0.98;100.00;96386.78;4980950;28;24434;-76
2023/03/04 09:04:28;;;;;;;38.05;25.73;;;;;;;-1.19;100.00;96390.31;4989437;28;24460;-76
2023/03/04 09:06:54;;;;;;;35.90;26.00;;;;;;;-1.16;100.00;96386.91;4985488;28;24445;-76
2023/03/04 09:09:21;;;;;;;34.63;26.00;;;;;;;-1.13;100.00;96394.53;4986171;28;24896;-76
2023/03/04 09:11:47;;;;;;;35.78;27.60;;;;;;;-1.15;100.00;96391.13;4984390;28;24445;-76
2023/03/04 09:14:14;;;;;;;36.85;26.23;;;;;;;-1.06;100.00;96391.94;4986583;28;24513;-76
2023/03/04 09:16:40;;;;;;;38.13;26.27;;;;;;;-1.10;100.00;96389.44;4988457;28;24448;-76
2023/03/04 09:19:08;;;;;;;39.42;25.67;;;;;;;-1.16;100.00;96392.84;4988564;28;25009;-76
2023/03/04 09:21:35;;;;;;;34.45;26.95;;;;;;;-1.04;100.00;96397.84;4990333;28;24445;-76
2023/03/04 09:24:02;;;;;;;36.13;26.42;;;;;;;-1.09;100.00;96389.41;4989836;28;24460;-76
2023/03/04 09:26:30;;;;;;;33.70;27.35;;;;;;;-0.70;100.00;96399.25;4986852;28;24998;-76
2023/03/04 09:28:58;;;;;;;39.03;28.95;;;;;;;-0.87;100.00;96396.88;4989903;28;24467;-77
2023/03/04 09:31:25;;;;;;;35.08;27.40;;;;;;;-0.97;100.00;96394.38;4984111;28;24982;-76
2023/03/04 09:33:53;;;;;;;33.30;27.30;;;;;;;-0.99;100.00;96383.41;4988940;28;24441;-76
2023/03/04 09:36:21;;;;;;;39.50;29.03;;;;;;;-0.92;100.00;96389.28;4989779;28;24554;-76
2023/03/04 09:38:48;;;;;;;39.88;28.38;;;;;;;-0.76;100.00;96385.75;4987212;28;25009;-75
2023/03/04 09:41:18;;;;;;;33.42;27.88;;;;;;;-0.68;100.00;96387.38;4988715;28;24495;-76
2023/03/04 09:43:45;;;;;;;34.38;28.75;;;;;;;-0.66;100.00;96393.31;4990676;28;24458;-76
2023/03/04 09:46:14;;;;;;;33.80;27.23;;;;;;;-0.60;100.00;96393.25;4988926;28;24499;-77
2023/03/04 09:48:46;;;;;;;36.33;27.35;;;;;;;-0.33;100.00;96392.16;4993382;28;24440;-76
2023/03/04 09:51:22;;;;;;;39.90;28.90;;;;;;;-0.35;100.00;96381.13;4987520;28;24460;-77
2023/03/04 09:53:59;;;;;;;36.70;28.95;;;;;;;-0.15;100.00;96381.78;4985359;28;24433;-76
2023/03/04 09:56:26;;;;;;;40.05;29.73;;;;;;;-0.05;100.00;96388.44;4992498;28;24796;-76
2023/03/04 09:59:04;;;;;;;34.33;30.02;;;;;;;-0.15;100.00;96379.22;4993437;28;24441;-76
2023/03/04 10:01:36;;;;;;;33.65;28.67;;;;;;;-0.01;100.00;96381.59;4990346;28;24424;-76
2023/03/04 10:04:08;;;;;;;37.88;29.15;;;;;;;0.02;100.00;96388.38;4986749;28;24445;-76
2023/03/04 10:06:37;;;;;;;39.90;30.33;;;;;;;0.08;100.00;96388.31;4995229;28;24437;-76
2023/03/04 10:09:06;;;;;;;40.65;31.00;;;;;;;-0.33;100.00;96387.91;4990951;28;24464;-76
2023/03/04 10:11:39;;;;;;;42.10;32.30;;;;;;;-0.35;100.00;96383.69;4996502;28;24437;-77
2023/03/04 10:14:26;;;;;;;41.35;30.65;;;;;;;-0.10;100.00;96391.91;4987512;28;24860;-76
2023/03/04 10:16:57;;;;;;;41.47;32.58;;;;;;;-0.21;100.00;96397.09;4986126;28;24432;-76
2023/03/04 10:19:32;;;;;;;43.30;31.95;;;;;;;-0.34;100.00;96388.75;4987291;28;24452;-77
2023/03/04 10:22:00;;;;;;;42.20;33.58;;;;;;;-0.31;100.00;96383.63;4989183;28;24437;-76
2023/03/04 10:24:29;;;;;;;45.20;34.17;;;;;;;-0.22;100.00;96380.16;4981340;28;24498;-75
2023/03/04 10:27:02;;;;;;;37.78;31.23;;;;;;;0.12;100.00;96379.75;4986707;28;24444;-75
2023/03/04 10:29:31;;;;;;;42.57;32.63;;;;;;;0.32;100.00;96371.84;4986518;28;24618;-76
2023/03/04 10:31:58;;;;;;;41.30;33.13;;;;;;;0.32;100.00;96371.84;4992732;28;25010;-75
2023/03/04 10:34:25;;;;;;;38.25;28.95;;;;;;;0.11;100.00;96384.03;4992386;28;24441;-76
2023/03/04 10:36:58;;;;;;;44.07;31.47;;;;;;;0.35;100.00;96387.13;4993099;28;24440;-76
2023/03/04 10:39:29;;;;;;;41.42;32.35;;;;;;;0.57;100.00;96372.38;4982968;28;24530;-76
2023/03/04 10:41:58;;;;;;;48.05;32.75;;;;;;;0.41;100.00;96372.59;4992889;28;24440;-76
2023/03/04 10:44:25;;;;;;;38.13;30.40;;;;;;;0.60;100.00;96370.63;4981689;28;24815;-76
2023/03/04 10:46:55;;;;;;;40.43;30.63;;;;;;;0.46;100.00;96363.16;4992859;28;24460;-75
2023/03/04 10:49:23;;;;;;;38.78;29.10;;;;;;;0.74;100.00;96375.50;4984952;28;24468;-76
2023/03/04 10:51:53;;;;;;;39.72;31.35;;;;;;;1.08;100.00;96365.66;4989719;28;24496;-76
2023/03/04 10:54:31;;;;;;;43.30;32.28;;;;;;;1.57;100.00;96364.81;4994042;28;24429;-77
2023/03/04 10:57:00;;;;;;;39.47;31.75;;;;;;;1.47;100.00;96360.75;4982862;28;24429;-76
2023/03/04 10:59:42;;;;;;;45.83;32.38;;;;;;;1.49;100.00;96366.66;4986681;28;24844;-77
2023/03/04 11:02:19;;;;;;;39.97;32.53;;;;;;;2.58;100.00;96360.22;4977876;28;24439;-77
2023/03/04 11:04:52;;;;;;;37.75;31.38;;;;;;;2.10;100.00;96357.00;4989853;28;25311;-76
2023/03/04 11:07:19;;;;;;;50.60;32.03;;;;;;;2.16;100.00;96359.44;4989814;28;24440;-77
2023/03/04 11:09:47;;;;;;;44.28;29.77;;;;;;;1.93;100.00;96363.28;4985125;28;24438;-76
2023/03/04 11:12:15;;;;;;;41.70;30.75;;;;;;;2.16;100.00;96359.44;4987754;28;24440;-77